Time;durP1;ratioP1;P1;durP2;ratioP2;P2;SDS_P1;SDS_P2;PMS_P1;PMS_P2;Temp;Humidity;BMP_temperature;BMP_pressure;BME280_temperature;BME280_humidity;BME280_pressure;Samples;Min_cycle;Max_cycle;Signal;HPM_P1;HPM_P2
2021/09/27 00:00:19;;;;;;;9.23;8.27;;;14.90;99.90;;;;;;5071301;28;20401;-62
2021/09/27 00:02:44;;;;;;;8.20;7.43;;;14.90;99.90;;;;;;5071393;28;20182;-62
2021/09/27 00:05:14;;;;;;;9.43;7.93;;;14.90;99.90;;;;;;5071765;28;20402;-63
2021/09/27 00:07:40;;;;;;;8.60;7.80;;;14.90;99.90;;;;;;5071234;28;20163;-62
2021/09/27 00:10:09;;;;;;;6.87;6.37;;;14.90;99.90;;;;;;5071068;28;20436;-65
2021/09/27 00:12:35;;;;;;;7.77;7.17;;;14.80;99.90;;;;;;5071504;28;20433;-63
2021/09/27 00:15:01;;;;;;;8.10;7.40;;;14.80;99.90;;;;;;5071353;28;20924;-64
2021/09/27 00:17:26;;;;;;;8.07;7.27;;;14.80;99.90;;;;;;5071277;28;20398;-65
2021/09/27 00:19:52;;;;;;;7.87;7.27;;;14.90;99.90;;;;;;5071091;28;20246;-62
2021/09/27 00:22:17;;;;;;;6.90;6.30;;;14.90;99.90;;;;;;5071442;28;20167;-62
2021/09/27 00:24:43;;;;;;;9.30;8.40;;;14.80;99.90;;;;;;5071436;28;20171;-62
2021/09/27 00:27:09;;;;;;;7.47;6.87;;;14.70;99.90;;;;;;5071395;28;20262;-63
2021/09/27 00:29:35;;;;;;;7.30;6.60;;;14.70;99.90;;;;;;5070692;28;20199;-64
2021/09/27 00:32:00;;;;;;;8.23;6.30;;;14.70;99.90;;;;;;5071230;28;20250;-62
2021/09/27 00:34:26;;;;;;;7.13;6.43;;;14.70;99.90;;;;;;5071317;28;20166;-62
2021/09/27 00:36:51;;;;;;;8.27;7.63;;;14.70;99.90;;;;;;5071261;28;20531;-62
2021/09/27 00:39:17;;;;;;;11.50;7.40;;;14.70;99.90;;;;;;5070800;28;20187;-64
2021/09/27 00:41:44;;;;;;;7.07;6.47;;;14.70;99.90;;;;;;5071282;28;20255;-62
2021/09/27 00:44:09;;;;;;;7.37;6.67;;;14.70;99.90;;;;;;5071138;28;20167;-64
2021/09/27 00:46:35;;;;;;;9.90;6.87;;;14.70;99.90;;;;;;5071037;28;20913;-65
2021/09/27 00:49:02;;;;;;;7.37;6.67;;;14.70;99.90;;;;;;5070530;28;20460;-62
2021/09/27 00:51:35;;;;;;;8.33;6.90;;;14.70;99.90;;;;;;5071237;28;20250;-62
2021/09/27 00:54:12;;;;;;;7.57;6.87;;;14.70;99.90;;;;;;5073783;28;20947;-63
2021/09/27 00:56:50;;;;;;;7.40;6.70;;;14.60;99.90;;;;;;5074727;28;20393;-62
2021/09/27 00:59:15;;;;;;;6.77;6.17;;;14.70;99.90;;;;;;5074341;28;20959;-62
2021/09/27 01:01:41;;;;;;;7.50;6.90;;;14.70;99.90;;;;;;5074558;28;20417;-62
2021/09/27 01:04:08;;;;;;;7.47;6.50;;;14.60;99.90;;;;;;5074544;28;20174;-62
2021/09/27 01:06:47;;;;;;;7.17;6.60;;;14.60;99.90;;;;;;5074948;28;20402;-62
2021/09/27 01:09:24;;;;;;;9.90;7.40;;;14.70;99.90;;;;;;5074087;28;20467;-64
2021/09/27 01:12:30;;;;;;;7.27;6.43;;;14.70;99.90;;;;;;5074438;28;20397;-62
2021/09/27 01:15:07;;;;;;;8.27;7.57;;;14.70;99.90;;;;;;5074826;28;20392;-62
2021/09/27 01:18:05;;;;;;;8.70;7.90;;;14.70;99.90;;;;;;5074166;28;20909;-62
2021/09/27 01:20:57;;;;;;;8.03;7.33;;;14.70;99.90;;;;;;5069365;28;20417;-63
2021/09/27 01:24:00;;;;;;;6.97;6.37;;;14.90;99.90;;;;;;5065639;28;20409;-65
2021/09/27 01:26:29;;;;;;;6.97;6.37;;;14.90;99.90;;;;;;5074223;28;20401;-62
2021/09/27 01:29:27;;;;;;;9.93;7.40;;;14.90;99.90;;;;;;5072469;28;20547;-62
2021/09/27 01:32:32;;;;;;;7.63;7.03;;;14.90;99.90;;;;;;5074126;28;20394;-62
2021/09/27 01:35:30;;;;;;;8.83;8.03;;;15.00;99.90;;;;;;5074108;28;20402;-62
2021/09/27 01:37:59;;;;;;;8.30;7.20;;;15.10;99.90;;;;;;5073856;28;20425;-62
2021/09/27 01:40:48;;;;;;;7.33;6.73;;;15.10;99.90;;;;;;5073855;28;20410;-62
2021/09/27 01:43:16;;;;;;;8.03;7.40;;;15.20;99.90;;;;;;5073871;28;20443;-63
2021/09/27 01:46:08;;;;;;;7.60;7.00;;;15.20;99.90;;;;;;5074127;28;20505;-62
2021/09/27 01:48:51;;;;;;;9.60;7.37;;;15.30;99.90;;;;;;5073181;28;20856;-65
2021/09/27 01:51:16;;;;;;;9.37;8.60;;;15.20;99.90;;;;;;5073726;28;20739;-62
2021/09/27 01:54:03;;;;;;;9.73;7.90;;;15.20;99.90;;;;;;5073665;28;20409;-65
2021/09/27 01:56:50;;;;;;;7.27;6.67;;;15.10;99.90;;;;;;5073682;28;20195;-62
2021/09/27 01:59:22;;;;;;;8.87;8.00;;;15.20;99.90;;;;;;5073124;28;20424;-65
2021/09/27 02:01:57;;;;;;;8.13;7.43;;;15.10;99.90;;;;;;5073451;28;20398;-63
2021/09/27 02:04:52;;;;;;;8.10;7.50;;;15.10;99.90;;;;;;5072639;28;20484;-63
2021/09/27 02:07:20;;;;;;;8.63;7.93;;;15.00;99.90;;;;;;5073503;28;20493;-62
2021/09/27 02:10:07;;;;;;;9.07;8.27;;;15.00;99.90;;;;;;5072506;28;20465;-62
2021/09/27 02:12:40;;;;;;;8.77;8.07;;;15.00;99.90;;;;;;5073376;28;20805;-63
2021/09/27 02:15:49;;;;;;;13.43;7.53;;;14.90;99.90;;;;;;5073350;28;20429;-62
2021/09/27 02:18:25;;;;;;;10.10;8.60;;;14.90;99.90;;;;;;5072804;28;20934;-64
2021/09/27 02:20:56;;;;;;;9.73;8.93;;;14.80;99.90;;;;;;5073143;28;20420;-64
2021/09/27 02:23:33;;;;;;;10.53;9.53;;;14.80;99.90;;;;;;5073148;28;20961;-62
2021/09/27 02:25:59;;;;;;;8.83;8.03;;;14.90;99.90;;;;;;5073204;28;20897;-63
2021/09/27 02:28:26;;;;;;;9.40;8.60;;;14.80;99.90;;;;;;5072446;28;20545;-62
2021/09/27 02:31:09;;;;;;;11.07;10.07;;;14.80;99.90;;;;;;5072811;28;20202;-63
2021/09/27 02:33:50;;;;;;;11.80;10.70;;;14.80;99.90;;;;;;5072959;28;20451;-64
2021/09/27 02:36:25;;;;;;;10.27;9.27;;;14.80;99.90;;;;;;5072848;28;20400;-63
2021/09/27 02:39:09;;;;;;;9.53;8.73;;;14.70;99.90;;;;;;5072258;28;20475;-62
2021/09/27 02:41:47;;;;;;;9.73;8.47;;;14.70;99.90;;;;;;5072967;28;20402;-62
2021/09/27 02:44:14;;;;;;;9.87;8.97;;;14.70;99.90;;;;;;5073346;28;20401;-65
2021/09/27 02:46:43;;;;;;;8.60;7.67;;;14.60;99.90;;;;;;5072637;28;20424;-64
2021/09/27 02:49:14;;;;;;;10.63;9.63;;;14.60;99.90;;;;;;5071987;28;20870;-64
2021/09/27 02:51:45;;;;;;;10.50;9.50;;;14.50;99.90;;;;;;5072739;28;20401;-64
2021/09/27 02:54:13;;;;;;;9.03;8.20;;;14.50;99.90;;;;;;5072770;28;20552;-64
2021/09/27 02:56:38;;;;;;;9.90;8.90;;;14.50;99.90;;;;;;5072409;28;20440;-63
2021/09/27 02:59:30;;;;;;;11.93;10.57;;;14.60;99.90;;;;;;5072070;28;20981;-64
2021/09/27 03:02:14;;;;;;;10.93;9.67;;;14.60;99.90;;;;;;5072388;28;20554;-64
2021/09/27 03:05:34;;;;;;;11.87;10.20;;;14.70;99.90;;;;;;5072385;28;20405;-64
2021/09/27 03:08:22;;;;;;;11.40;10.50;;;14.60;99.90;;;;;;5054861;28;20500;-65
2021/09/27 03:11:06;;;;;;;12.03;10.37;;;14.60;99.90;;;;;;5072086;28;20400;-64
2021/09/27 03:13:35;;;;;;;12.13;10.73;;;14.60;99.90;;;;;;5072227;28;20394;-63
2021/09/27 03:16:43;;;;;;;14.53;11.43;;;14.70;99.90;;;;;;5071995;28;20490;-63
2021/09/27 03:19:31;;;;;;;11.50;10.43;;;14.70;99.90;;;;;;5071822;28;20410;-64
2021/09/27 03:22:06;;;;;;;12.27;11.03;;;14.80;99.90;;;;;;5072008;28;20393;-64
2021/09/27 03:24:56;;;;;;;12.33;11.20;;;14.70;99.90;;;;;;5072548;28;20400;-64
2021/09/27 03:27:47;;;;;;;13.47;12.13;;;14.70;99.90;;;;;;5072264;28;20397;-64
2021/09/27 03:30:33;;;;;;;12.23;10.93;;;14.70;99.90;;;;;;5071710;28;20412;-64
2021/09/27 03:33:21;;;;;;;11.87;10.50;;;14.60;99.90;;;;;;5071808;28;20400;-63
2021/09/27 03:36:11;;;;;;;14.70;13.17;;;14.70;99.90;;;;;;5072095;28;20764;-63
2021/09/27 03:38:43;;;;;;;16.70;12.63;;;14.60;99.90;;;;;;5071533;28;20524;-64
2021/09/27 03:41:22;;;;;;;15.07;12.00;;;14.70;99.90;;;;;;5071855;28;20405;-63
2021/09/27 03:43:57;;;;;;;14.17;12.53;;;14.70;99.90;;;;;;5071884;28;20400;-64
2021/09/27 03:46:39;;;;;;;15.90;12.93;;;14.70;99.90;;;;;;5072025;28;20389;-64
2021/09/27 03:49:08;;;;;;;13.50;12.20;;;14.70;99.90;;;;;;5071379;28;20461;-64
2021/09/27 03:51:41;;;;;;;13.33;12.13;;;14.70;99.90;;;;;;5071676;28;20402;-64
2021/09/27 03:54:17;;;;;;;13.67;12.30;;;14.70;99.90;;;;;;5071682;28;20758;-64
2021/09/27 03:56:53;;;;;;;13.60;11.07;;;14.70;99.90;;;;;;5071755;28;20939;-64
2021/09/27 03:59:30;;;;;;;14.33;12.87;;;14.70;99.90;;;;;;5071388;28;20424;-63
2021/09/27 04:02:02;;;;;;;17.53;13.83;;;14.60;99.90;;;;;;5071683;28;20404;-63
2021/09/27 04:04:33;;;;;;;12.90;11.57;;;14.60;99.90;;;;;;5071860;28;20477;-63
2021/09/27 04:07:08;;;;;;;13.63;11.90;;;14.60;99.90;;;;;;5071827;28;20784;-63
2021/09/27 04:09:54;;;;;;;15.67;13.67;;;14.70;99.90;;;;;;5071104;28;20878;-63
2021/09/27 04:12:34;;;;;;;13.43;12.07;;;14.70;99.90;;;;;;5071586;28;20401;-64
2021/09/27 04:15:14;;;;;;;14.27;12.87;;;14.70;99.90;;;;;;5071686;28;20455;-64
2021/09/27 04:18:05;;;;;;;14.87;13.30;;;14.60;99.90;;;;;;5071556;28;20415;-64
2021/09/27 04:20:45;;;;;;;14.70;13.20;;;14.60;99.90;;;;;;5071525;28;20408;-64
2021/09/27 04:23:35;;;;;;;15.73;11.87;;;14.60;99.90;;;;;;5071479;28;20409;-63
2021/09/27 04:26:25;;;;;;;12.60;11.23;;;14.60;99.90;;;;;;5071484;28;20393;-63
2021/09/27 04:29:36;;;;;;;11.97;10.83;;;14.60;99.90;;;;;;5073616;28;21040;-64
2021/09/27 04:32:20;;;;;;;12.83;11.53;;;14.70;99.90;;;;;;5032981;28;20896;-64
2021/09/27 04:35:11;;;;;;;14.53;12.93;;;14.60;99.90;;;;;;5074675;28;20420;-63
2021/09/27 04:37:38;;;;;;;13.63;12.13;;;14.60;99.90;;;;;;5074994;28;20470;-64
2021/09/27 04:40:07;;;;;;;13.20;11.00;;;14.70;99.90;;;;;;5074781;28;20401;-63
2021/09/27 04:42:57;;;;;;;12.27;11.00;;;14.60;99.90;;;;;;5075033;28;20420;-64
2021/09/27 04:45:32;;;;;;;11.43;10.13;;;14.50;99.90;;;;;;5075109;28;20476;-64
2021/09/27 04:48:23;;;;;;;13.60;12.20;;;14.60;99.90;;;;;;5074406;28;20618;-63
2021/09/27 04:50:58;;;;;;;13.00;11.40;;;14.50;99.90;;;;;;5074925;28;20416;-63
2021/09/27 04:53:34;;;;;;;12.20;11.10;;;14.50;99.90;;;;;;5074909;28;20396;-63
2021/09/27 04:56:28;;;;;;;12.90;11.70;;;14.60;99.90;;;;;;5074926;28;20397;-64
2021/09/27 04:58:59;;;;;;;12.30;11.10;;;14.60;99.90;;;;;;5074381;28;20417;-64
2021/09/27 05:01:41;;;;;;;13.30;11.07;;;14.60;99.90;;;;;;5074681;28;20885;-64
2021/09/27 05:04:25;;;;;;;12.60;11.37;;;14.60;99.90;;;;;;5074651;28;20397;-64
2021/09/27 05:07:14;;;;;;;12.53;10.57;;;14.60;99.90;;;;;;5074567;28;20424;-64
2021/09/27 05:09:57;;;;;;;17.20;12.17;;;14.70;99.90;;;;;;5074021;28;20457;-64
2021/09/27 05:12:40;;;;;;;14.10;12.70;;;14.60;99.90;;;;;;5074624;28;20406;-63
2021/09/27 05:15:23;;;;;;;13.40;11.93;;;14.70;99.90;;;;;;5074420;28;20386;-64
2021/09/27 05:18:09;;;;;;;14.53;13.20;;;14.60;99.90;;;;;;5074324;28;20417;-64
2021/09/27 05:21:02;;;;;;;13.60;12.00;;;14.60;99.90;;;;;;5074376;28;20402;-64
2021/09/27 05:23:31;;;;;;;13.87;12.10;;;14.60;99.90;;;;;;5074261;28;20535;-63
2021/09/27 05:26:18;;;;;;;14.87;12.33;;;14.60;99.90;;;;;;5074233;28;20402;-63
2021/09/27 05:29:08;;;;;;;12.00;10.80;;;14.60;99.90;;;;;;5073809;28;21046;-64
2021/09/27 05:31:37;;;;;;;15.43;10.73;;;14.70;99.90;;;;;;5074142;28;20425;-63
2021/09/27 05:34:18;;;;;;;12.47;11.20;;;14.60;99.90;;;;;;5074020;28;20406;-63
2021/09/27 05:36:48;;;;;;;10.87;9.77;;;14.60;99.90;;;;;;5074177;28;20413;-64
2021/09/27 05:39:37;;;;;;;15.47;10.90;;;14.60;99.90;;;;;;5072316;28;20429;-64
2021/09/27 05:42:08;;;;;;;12.13;10.43;;;14.70;99.90;;;;;;5073881;28;20444;-64
2021/09/27 05:44:42;;;;;;;12.43;11.17;;;14.70;99.90;;;;;;5073984;28;20470;-63
2021/09/27 05:47:37;;;;;;;9.77;8.77;;;14.70;99.90;;;;;;5073874;28;20488;-63
2021/09/27 05:50:06;;;;;;;12.10;10.33;;;14.70;99.90;;;;;;5073400;28;20484;-64
2021/09/27 05:53:02;;;;;;;11.37;10.27;;;14.70;99.90;;;;;;5073733;28;20409;-64
2021/09/27 05:55:37;;;;;;;13.43;9.30;;;14.80;99.90;;;;;;5073745;28;20394;-64
2021/09/27 05:58:24;;;;;;;10.37;9.37;;;14.80;99.90;;;;;;5073263;28;20795;-63
2021/09/27 06:01:07;;;;;;;11.00;9.90;;;14.90;99.90;;;;;;5073533;28;20890;-64
2021/09/27 06:04:03;;;;;;;8.17;7.43;;;14.80;99.90;;;;;;5073498;28;20409;-64
2021/09/27 06:06:45;;;;;;;10.70;9.17;;;14.80;99.90;;;;;;5073535;28;20433;-64
2021/09/27 06:09:18;;;;;;;11.17;8.20;;;14.80;99.90;;;;;;5072879;28;20835;-64
2021/09/27 06:11:57;;;;;;;9.90;9.00;;;14.90;99.90;;;;;;5073606;28;20780;-63
2021/09/27 06:14:26;;;;;;;11.20;10.10;;;14.90;99.90;;;;;;5073360;28;20470;-64
2021/09/27 06:17:01;;;;;;;11.73;8.50;;;14.90;99.90;;;;;;5073487;28;20405;-64
2021/09/27 06:19:52;;;;;;;9.93;9.00;;;15.00;99.90;;;;;;5072793;28;20566;-63
2021/09/27 06:22:24;;;;;;;9.43;8.53;;;15.00;99.90;;;;;;5073092;28;20397;-64
2021/09/27 06:25:17;;;;;;;9.97;8.00;;;15.10;99.90;;;;;;5073126;28;20401;-63
2021/09/27 06:27:54;;;;;;;10.73;8.37;;;15.10;99.90;;;;;;5072877;28;20409;-64
2021/09/27 06:30:33;;;;;;;10.73;8.20;;;15.20;99.90;;;;;;5072758;28;20397;-64
2021/09/27 06:33:26;;;;;;;9.17;8.27;;;15.20;99.90;;;;;;5072974;28;20437;-63
2021/09/27 06:35:54;;;;;;;10.00;8.37;;;15.30;99.90;;;;;;5072933;28;20463;-64
2021/09/27 06:38:28;;;;;;;7.83;7.03;;;15.40;99.90;;;;;;5072426;28;20449;-64
2021/09/27 06:40:55;;;;;;;9.97;6.73;;;15.40;99.90;;;;;;5072679;28;20931;-63
2021/09/27 06:43:24;;;;;;;8.27;7.43;;;15.50;99.90;;;;;;5072741;28;20499;-64
2021/09/27 06:45:50;;;;;;;9.20;7.77;;;15.60;99.90;;;;;;5072677;28;20413;-63
2021/09/27 06:48:16;;;;;;;7.80;7.00;;;15.60;99.90;;;;;;5072284;28;20830;-64
2021/09/27 06:50:42;;;;;;;8.03;7.23;;;15.60;99.90;;;;;;5072163;28;20401;-64
2021/09/27 06:53:07;;;;;;;7.97;7.20;;;15.70;99.90;;;;;;5071088;28;20419;-65
2021/09/27 06:55:33;;;;;;;10.30;6.83;;;15.90;99.90;;;;;;5072516;28;20543;-64
2021/09/27 06:57:59;;;;;;;6.30;5.80;;;15.90;99.90;;;;;;5070353;28;20182;-64
2021/09/27 07:00:26;;;;;;;6.10;5.70;;;15.90;99.90;;;;;;5072440;28;20414;-65
2021/09/27 07:02:52;;;;;;;6.40;5.80;;;16.10;99.90;;;;;;5072348;28;20301;-64
2021/09/27 07:05:17;;;;;;;5.57;5.17;;;16.00;99.90;;;;;;5072281;28;20496;-66
2021/09/27 07:07:43;;;;;;;6.80;6.07;;;16.10;99.90;;;;;;5071570;28;20190;-65
2021/09/27 07:10:13;;;;;;;6.20;5.70;;;16.10;99.90;;;;;;5071747;28;20175;-65
2021/09/27 07:12:39;;;;;;;8.00;7.37;;;16.20;99.90;;;;;;5072016;28;20167;-65
2021/09/27 07:15:06;;;;;;;7.50;5.97;;;16.30;99.90;;;;;;5072171;28;20417;-65
2021/09/27 07:17:31;;;;;;;7.43;6.67;;;16.30;99.90;;;;;;5072041;28;20175;-65
2021/09/27 07:19:57;;;;;;;6.87;6.30;;;16.30;99.90;;;;;;5071591;28;20898;-65
2021/09/27 07:22:23;;;;;;;7.50;6.80;;;16.30;99.90;;;;;;5071979;28;20202;-66
2021/09/27 07:24:49;;;;;;;9.40;5.50;;;16.30;99.90;;;;;;5072065;28;20723;-65
2021/09/27 07:27:14;;;;;;;9.77;8.50;;;16.30;99.90;;;;;;5070635;28;20417;-65
2021/09/27 07:29:40;;;;;;;6.13;5.20;;;16.30;99.90;;;;;;5071490;28;20702;-64
2021/09/27 07:32:06;;;;;;;6.53;5.80;;;16.30;99.90;;;;;;5071891;28;20167;-65
2021/09/27 07:34:31;;;;;;;6.50;5.90;;;16.40;99.90;;;;;;5071917;28;20195;-65
2021/09/27 07:36:57;;;;;;;6.00;4.90;;;16.30;99.90;;;;;;5071784;28;20171;-63
2021/09/27 07:39:23;;;;;;;9.90;5.80;;;16.30;99.90;;;;;;5071429;28;20212;-64
2021/09/27 07:41:49;;;;;;;6.00;5.20;;;16.40;99.90;;;;;;5071682;28;20433;-66
2021/09/27 07:44:14;;;;;;;7.00;6.00;;;16.50;99.90;;;;;;5071803;28;20168;-66
2021/09/27 07:46:40;;;;;;;5.10;4.80;;;16.60;99.90;;;;;;5071799;28;20171;-66
2021/09/27 07:49:05;;;;;;;4.90;4.60;;;16.90;99.90;;;;;;5071332;28;20286;-66
2021/09/27 07:51:32;;;;;;;5.77;5.27;;;17.10;99.90;;;;;;5071588;28;20198;-66
2021/09/27 07:53:57;;;;;;;5.27;4.67;;;17.30;99.90;;;;;;5071943;28;20175;-66
2021/09/27 07:56:23;;;;;;;4.67;4.27;;;17.40;99.90;;;;;;5071651;28;20397;-67
2021/09/27 07:58:49;;;;;;;6.00;4.80;;;17.50;99.90;;;;;;5071178;28;20193;-65
2021/09/27 08:01:14;;;;;;;4.10;3.80;;;17.60;99.90;;;;;;5071603;28;20545;-65
2021/09/27 08:03:41;;;;;;;4.80;4.33;;;17.60;99.90;;;;;;5074122;28;20175;-66
2021/09/27 08:06:07;;;;;;;4.63;4.20;;;17.60;99.90;;;;;;5075728;28;20662;-71
2021/09/27 08:08:32;;;;;;;5.47;4.73;;;17.60;99.90;;;;;;5075016;28;20453;-63
2021/09/27 08:10:58;;;;;;;4.97;4.50;;;17.60;99.90;;;;;;5075643;28;20653;-68
2021/09/27 08:13:24;;;;;;;4.90;4.50;;;17.70;99.90;;;;;;5075571;28;20163;-65
2021/09/27 08:15:52;;;;;;;5.40;5.00;;;17.80;99.90;;;;;;5075566;28;20203;-65
2021/09/27 08:18:19;;;;;;;4.17;3.90;;;17.80;99.90;;;;;;5074997;28;20191;-66
2021/09/27 08:20:57;;;;;;;4.00;3.70;;;17.90;99.90;;;;;;5075414;28;20405;-65
2021/09/27 08:23:25;;;;;;;4.60;4.30;;;18.00;99.90;;;;;;5075428;28;20413;-69
2021/09/27 08:25:52;;;;;;;5.93;4.90;;;18.00;99.90;;;;;;5075553;28;20543;-70
2021/09/27 08:28:20;;;;;;;4.60;4.20;;;18.10;99.90;;;;;;5074731;28;20449;-65
2021/09/27 08:30:59;;;;;;;5.33;4.53;;;18.20;99.90;;;;;;5075037;28;20924;-65
2021/09/27 08:33:25;;;;;;;4.90;4.50;;;18.40;99.90;;;;;;5075365;28;20436;-65
2021/09/27 08:35:53;;;;;;;5.10;4.60;;;18.40;99.90;;;;;;5075189;28;20405;-65
2021/09/27 08:38:21;;;;;;;4.80;4.40;;;18.40;99.90;;;;;;5074716;28;20445;-65
2021/09/27 08:41:19;;;;;;;4.73;4.10;;;18.40;99.90;;;;;;5074999;28;20542;-66
2021/09/27 08:44:04;;;;;;;4.27;3.97;;;18.40;99.90;;;;;;5074947;28;20762;-65
2021/09/27 08:46:35;;;;;;;5.90;4.30;;;18.50;99.90;;;;;;5075418;28;20409;-66
2021/09/27 08:49:34;;;;;;;5.00;4.60;;;18.70;99.90;;;;;;5074451;28;20449;-64
2021/09/27 08:52:00;;;;;;;8.70;5.13;;;18.90;99.90;;;;;;5074845;28;20897;-63
2021/09/27 08:54:29;;;;;;;4.10;3.80;;;19.00;99.90;;;;;;5074706;28;20405;-62
2021/09/27 08:57:10;;;;;;;3.40;3.20;;;19.20;99.90;;;;;;5074758;28;20170;-64
2021/09/27 08:59:39;;;;;;;6.63;4.17;;;19.10;99.90;;;;;;5074332;28;20425;-63
2021/09/27 09:02:12;;;;;;;3.73;3.50;;;19.20;99.90;;;;;;5074591;28;20489;-66
2021/09/27 09:04:53;;;;;;;4.27;3.97;;;19.20;99.90;;;;;;5074621;28;20906;-63
2021/09/27 09:07:20;;;;;;;3.60;3.40;;;19.20;99.90;;;;;;5074657;28;20411;-65
2021/09/27 09:09:59;;;;;;;5.63;4.60;;;19.50;99.90;;;;;;5073829;28;20581;-68
2021/09/27 09:12:51;;;;;;;4.17;3.87;;;19.60;99.90;;;;;;5074261;28;20999;-65
2021/09/27 09:15:26;;;;;;;3.97;3.57;;;19.80;99.50;;;;;;5071405;28;20436;-65
2021/09/27 09:17:59;;;;;;;3.10;2.80;;;19.90;99.20;;;;;;5074416;28;20417;-65
2021/09/27 09:20:45;;;;;;;4.27;4.07;;;19.60;99.30;;;;;;5074190;28;20412;-64
2021/09/27 09:23:23;;;;;;;11.90;4.00;;;19.30;99.50;;;;;;5074177;28;20409;-65
2021/09/27 09:25:48;;;;;;;3.80;3.60;;;19.00;99.90;;;;;;5074345;28;20398;-65
2021/09/27 09:28:14;;;;;;;3.40;2.80;;;18.80;99.90;;;;;;5073659;28;20457;-65
2021/09/27 09:30:45;;;;;;;4.13;3.83;;;18.70;99.90;;;;;;5073993;28;20242;-67
2021/09/27 09:33:38;;;;;;;2.90;2.73;;;18.60;99.90;;;;;;5074601;28;20167;-66
2021/09/27 09:36:06;;;;;;;4.13;3.83;;;18.90;99.90;;;;;;5074157;28;20398;-66
2021/09/27 09:38:37;;;;;;;3.93;3.63;;;19.20;99.90;;;;;;5073653;28;20478;-64
2021/09/27 09:41:04;;;;;;;3.47;3.27;;;19.30;99.90;;;;;;5073788;28;20913;-65
2021/09/27 09:43:31;;;;;;;4.87;3.53;;;19.40;99.90;;;;;;5073856;28;20410;-66
2021/09/27 09:46:08;;;;;;;3.70;3.50;;;19.60;99.90;;;;;;5073791;28;20913;-66
2021/09/27 09:48:35;;;;;;;3.47;3.27;;;19.50;99.90;;;;;;5073559;28;20839;-65
2021/09/27 09:51:40;;;;;;;3.50;3.30;;;19.60;99.70;;;;;;5073730;28;20906;-65
2021/09/27 09:54:19;;;;;;;5.27;4.20;;;19.50;99.90;;;;;;5073781;28;20404;-65
2021/09/27 09:57:07;;;;;;;5.87;4.30;;;19.60;99.90;;;;;;5073702;28;20454;-65
2021/09/27 09:59:37;;;;;;;3.17;2.97;;;19.60;99.40;;;;;;5061812;28;20437;-65
2021/09/27 10:02:15;;;;;;;3.30;3.10;;;19.90;99.70;;;;;;5073552;28;20962;-65
2021/09/27 10:04:51;;;;;;;3.47;3.20;;;20.10;99.90;;;;;;5073365;28;20406;-64
2021/09/27 10:07:20;;;;;;;3.73;3.43;;;20.00;99.00;;;;;;5073454;28;20404;-69
2021/09/27 10:09:51;;;;;;;3.50;3.40;;;19.90;98.60;;;;;;5072761;28;20595;-71
2021/09/27 10:12:39;;;;;;;3.77;3.43;;;20.00;99.30;;;;;;5073302;28;20402;-66
2021/09/27 10:15:05;;;;;;;3.50;3.20;;;19.80;99.20;;;;;;5073224;28;20397;-65
2021/09/27 10:17:37;;;;;;;3.10;2.90;;;19.60;99.40;;;;;;5073272;28;20851;-65
2021/09/27 10:20:17;;;;;;;3.67;3.47;;;19.50;99.30;;;;;;5072783;28;20397;-65
2021/09/27 10:23:00;;;;;;;4.07;3.77;;;19.30;99.50;;;;;;5073186;28;20405;-65
2021/09/27 10:25:47;;;;;;;3.90;3.30;;;19.20;99.90;;;;;;5072748;28;20826;-65
2021/09/27 10:28:17;;;;;;;3.77;3.47;;;19.10;99.60;;;;;;5072612;28;20815;-65
2021/09/27 10:30:46;;;;;;;3.37;3.17;;;18.90;99.90;;;;;;5072893;28;20401;-65
2021/09/27 10:33:14;;;;;;;3.23;3.03;;;19.00;99.90;;;;;;5072915;28;20410;-64
2021/09/27 10:35:49;;;;;;;3.30;3.10;;;19.10;99.90;;;;;;5072817;28;20467;-66
2021/09/27 10:38:25;;;;;;;4.30;3.97;;;19.30;99.90;;;;;;5072370;28;20470;-65
2021/09/27 10:40:52;;;;;;;3.87;3.53;;;19.40;99.90;;;;;;5072665;28;20432;-64
2021/09/27 10:43:22;;;;;;;4.23;3.47;;;19.40;99.90;;;;;;5072824;28;20898;-64
2021/09/27 10:45:57;;;;;;;4.23;3.63;;;19.40;99.90;;;;;;5072597;28;20401;-67
2021/09/27 10:48:24;;;;;;;4.00;3.70;;;19.50;99.90;;;;;;5072047;28;21034;-62
2021/09/27 10:50:56;;;;;;;3.40;3.20;;;19.50;99.90;;;;;;5072509;28;20409;-63
2021/09/27 10:53:33;;;;;;;3.23;3.03;;;19.40;99.90;;;;;;5072586;28;20412;-64
2021/09/27 10:56:14;;;;;;;4.50;3.77;;;19.40;99.90;;;;;;5072564;28;20437;-64
2021/09/27 10:58:43;;;;;;;4.97;4.00;;;19.60;99.70;;;;;;5072150;28;20490;-64
2021/09/27 11:01:29;;;;;;;3.27;3.07;;;19.60;99.60;;;;;;5072271;28;20406;-64
2021/09/27 11:03:55;;;;;;;3.70;3.40;;;19.80;99.80;;;;;;5072274;28;20425;-64
2021/09/27 11:06:26;;;;;;;3.40;3.20;;;20.00;99.60;;;;;;5072194;28;20402;-65
2021/09/27 11:09:08;;;;;;;6.07;4.20;;;20.10;99.00;;;;;;5071766;28;20901;-64
2021/09/27 11:11:58;;;;;;;3.47;3.20;;;20.20;98.00;;;;;;5072086;28;20459;-64
2021/09/27 11:14:26;;;;;;;4.00;3.60;;;20.20;98.50;;;;;;5072106;28;20390;-64
2021/09/27 11:17:05;;;;;;;4.00;3.70;;;20.20;98.60;;;;;;5072123;28;20406;-64
2021/09/27 11:19:34;;;;;;;3.10;3.00;;;20.20;98.80;;;;;;5071728;28;20478;-66
2021/09/27 11:22:18;;;;;;;4.57;4.17;;;20.40;98.10;;;;;;5071861;28;20939;-64
2021/09/27 11:24:43;;;;;;;3.43;3.23;;;20.20;97.90;;;;;;5072004;28;20933;-67
2021/09/27 11:27:14;;;;;;;3.83;3.53;;;20.20;98.30;;;;;;5072358;28;20429;-64
2021/09/27 11:29:46;;;;;;;2.70;2.50;;;20.00;98.60;;;;;;5071462;28;20203;-66
2021/09/27 11:32:28;;;;;;;4.00;3.17;;;20.00;98.30;;;;;;5071826;28;20817;-64
2021/09/27 11:35:13;;;;;;;5.70;3.07;;;20.20;98.60;;;;;;5071893;28;20443;-64
2021/09/27 11:37:41;;;;;;;5.80;3.70;;;20.50;98.40;;;;;;5071743;28;20852;-65
2021/09/27 11:40:06;;;;;;;3.30;3.10;;;20.90;97.20;;;;;;5071575;28;20445;-64
2021/09/27 11:43:14;;;;;;;3.80;3.50;;;21.00;95.80;;;;;;5071655;28;20437;-65
2021/09/27 11:45:52;;;;;;;2.83;2.63;;;20.90;95.60;;;;;;5068652;28;20183;-68
2021/09/27 11:48:18;;;;;;;3.07;2.77;;;21.00;96.90;;;;;;5071598;28;20456;-67
2021/09/27 11:50:51;;;;;;;2.90;2.70;;;20.90;95.50;;;;;;5071878;28;20410;-69
2021/09/27 11:53:33;;;;;;;2.90;2.70;;;20.70;96.40;;;;;;5071753;28;20163;-65
2021/09/27 11:56:22;;;;;;;2.80;2.60;;;20.40;96.30;;;;;;5072014;28;20876;-67
2021/09/27 11:58:59;;;;;;;3.07;2.77;;;20.20;96.00;;;;;;5071660;28;20819;-68
2021/09/27 12:01:43;;;;;;;2.73;2.53;;;20.00;96.80;;;;;;5071423;28;20446;-64
2021/09/27 12:04:36;;;;;;;3.10;2.90;;;19.90;97.10;;;;;;5071699;28;20409;-64
2021/09/27 12:07:04;;;;;;;3.00;2.90;;;19.90;97.20;;;;;;5071635;28;20497;-64
2021/09/27 12:09:43;;;;;;;2.33;2.23;;;19.80;97.10;;;;;;5071027;28;20844;-64
2021/09/27 12:12:21;;;;;;;2.33;2.23;;;19.60;97.00;;;;;;5071540;28;20401;-63
2021/09/27 12:14:48;;;;;;;3.13;2.93;;;19.50;97.80;;;;;;5071526;28;20455;-67
2021/09/27 12:17:20;;;;;;;2.83;2.50;;;19.50;97.70;;;;;;5071775;28;20397;-65
2021/09/27 12:19:55;;;;;;;2.50;2.30;;;19.40;97.10;;;;;;5071125;28;20429;-66
2021/09/27 12:22:27;;;;;;;4.77;2.97;;;19.20;97.70;;;;;;5071238;28;20420;-66
2021/09/27 12:24:52;;;;;;;2.90;2.70;;;19.10;98.00;;;;;;5071303;28;20983;-66
2021/09/27 12:27:27;;;;;;;2.53;2.43;;;19.00;97.90;;;;;;5071417;28;20405;-65
2021/09/27 12:29:59;;;;;;;3.60;3.30;;;19.00;98.40;;;;;;5070946;28;20297;-65
2021/09/27 12:32:42;;;;;;;2.80;2.70;;;18.90;98.80;;;;;;5071395;28;20427;-66
2021/09/27 12:35:11;;;;;;;2.83;2.63;;;18.80;99.00;;;;;;5071309;28;20410;-67
2021/09/27 12:37:41;;;;;;;2.80;2.60;;;18.70;98.90;;;;;;5071347;28;20405;-65
2021/09/27 12:40:12;;;;;;;2.97;2.77;;;18.80;98.40;;;;;;5070950;28;20429;-65
2021/09/27 12:42:54;;;;;;;2.40;2.30;;;19.00;98.60;;;;;;5071302;28;20412;-66
2021/09/27 12:45:31;;;;;;;3.47;2.93;;;19.00;98.30;;;;;;5071150;28;20409;-65
2021/09/27 12:48:01;;;;;;;2.60;2.43;;;19.40;98.30;;;;;;5071004;28;20471;-67
2021/09/27 12:50:30;;;;;;;4.40;4.00;;;19.70;98.00;;;;;;5073370;28;20417;-66
2021/09/27 12:52:59;;;;;;;2.60;2.50;;;19.90;97.70;;;;;;5074924;28;20413;-67
2021/09/27 12:55:45;;;;;;;10.30;2.23;;;20.20;96.90;;;;;;5074597;28;20420;-66
2021/09/27 12:58:19;;;;;;;3.00;2.70;;;20.40;96.40;;;;;;5074349;28;20528;-67
2021/09/27 13:00:45;;;;;;;2.27;2.07;;;20.30;96.60;;;;;;5074675;28;20404;-65
2021/09/27 13:03:18;;;;;;;2.40;2.30;;;20.10;96.00;;;;;;5074644;28;20466;-64
2021/09/27 13:06:02;;;;;;;3.07;2.80;;;20.00;96.70;;;;;;5075032;28;20487;-63
2021/09/27 13:08:29;;;;;;;3.40;3.20;;;19.90;96.80;;;;;;5074007;28;20495;-63
2021/09/27 13:10:58;;;;;;;5.63;2.50;;;19.70;96.70;;;;;;5074457;28;20932;-64
2021/09/27 13:13:33;;;;;;;3.70;2.33;;;19.60;96.80;;;;;;5074520;28;20398;-63
2021/09/27 13:16:02;;;;;;;3.00;2.53;;;19.70;97.70;;;;;;5074370;28;20901;-63
2021/09/27 13:18:34;;;;;;;3.13;2.93;;;19.80;97.60;;;;;;5074163;28;20791;-63
2021/09/27 13:21:25;;;;;;;2.60;2.37;;;19.90;98.20;;;;;;5074233;28;20410;-65
2021/09/27 13:24:05;;;;;;;2.77;2.60;;;19.80;97.80;;;;;;5074402;28;20762;-63
2021/09/27 13:27:03;;;;;;;2.83;2.63;;;19.50;97.60;;;;;;5074122;28;20409;-63